createdAt,value
2023-02-03T00:02:51.516Z,7.61
2023-02-03T00:07:55.628Z,7.67
2023-02-03T00:12:59.818Z,7.69
2023-02-03T00:18:03.981Z,7.71
2023-02-03T00:23:08.291Z,7.70
2023-02-03T00:28:12.332Z,7.71
2023-02-03T00:33:16.482Z,7.71
2023-02-03T00:38:20.601Z,7.71
2023-02-03T00:43:24.803Z,7.72
2023-02-03T00:48:28.926Z,7.76
2023-02-03T00:53:33.130Z,7.75
2023-02-03T00:58:37.281Z,7.78
2023-02-03T01:03:39.545Z,7.82
2023-02-03T01:08:43.722Z,7.83
2023-02-03T01:13:47.864Z,7.86
2023-02-03T01:18:52.016Z,7.85
2023-02-03T01:23:56.200Z,7.86
2023-02-03T01:29:00.363Z,7.86
2023-02-03T01:34:04.489Z,7.82
2023-02-03T01:39:08.688Z,7.81
2023-02-03T01:44:12.859Z,7.80
2023-02-03T01:49:16.981Z,7.82
2023-02-03T01:54:21.166Z,7.83
2023-02-03T01:59:25.310Z,7.84
2023-02-03T02:04:29.491Z,7.81
2023-02-03T02:09:33.672Z,7.80
2023-02-03T02:14:37.821Z,7.78
2023-02-03T02:19:41.971Z,7.80
2023-02-03T02:24:46.154Z,7.82
2023-02-03T02:29:50.302Z,7.82
2023-02-03T02:34:54.461Z,7.84
2023-02-03T02:39:58.626Z,7.83
2023-02-03T02:45:02.795Z,7.83
2023-02-03T02:50:05.088Z,7.82
2023-02-03T02:55:09.213Z,7.83
2023-02-03T03:00:11.529Z,7.86
2023-02-03T03:05:15.743Z,7.84
2023-02-03T03:10:19.809Z,7.86
2023-02-03T03:15:23.979Z,7.85
2023-02-03T03:20:28.575Z,7.84
2023-02-03T03:25:32.298Z,7.83
2023-02-03T03:30:36.558Z,7.84
2023-02-03T03:35:40.633Z,7.84
2023-02-03T03:40:44.771Z,7.84
2023-02-03T03:45:48.972Z,7.82
2023-02-03T03:50:53.100Z,7.82
2023-02-03T03:55:57.244Z,7.86
2023-02-03T04:01:01.682Z,7.85
2023-02-03T04:06:05.610Z,7.87
2023-02-03T04:11:09.770Z,7.85
2023-02-03T04:16:13.953Z,7.87
2023-02-03T04:21:18.098Z,7.90
2023-02-03T04:26:22.276Z,7.91
2023-02-03T04:31:26.515Z,7.91
2023-02-03T04:36:30.593Z,7.90
2023-02-03T04:41:34.743Z,7.92
2023-02-03T04:46:36.991Z,7.93
2023-02-03T04:51:41.261Z,7.92
2023-02-03T04:56:43.444Z,7.90
2023-02-03T05:01:47.586Z,7.96
2023-02-03T05:06:49.899Z,7.97
2023-02-03T05:11:54.058Z,7.97
2023-02-03T05:16:58.235Z,7.99
2023-02-03T05:22:02.389Z,8.00
2023-02-03T05:27:06.532Z,7.99
2023-02-03T05:32:10.797Z,8.03
2023-02-03T05:37:14.847Z,8.06
2023-02-03T05:42:19.009Z,8.04
2023-02-03T05:47:23.181Z,8.00
2023-02-03T05:52:27.370Z,8.01
2023-02-03T05:57:32.420Z,7.99
2023-02-03T06:02:35.664Z,8.01
2023-02-03T06:07:39.797Z,8.03
2023-02-03T06:12:43.968Z,8.04
2023-02-03T06:17:48.152Z,8.03
2023-02-03T06:22:52.281Z,8.08
2023-02-03T06:27:56.530Z,8.07
2023-02-03T06:33:00.635Z,8.09
2023-02-03T06:38:02.900Z,8.11
2023-02-03T06:43:07.100Z,8.16
2023-02-03T06:48:11.249Z,8.22
2023-02-03T06:53:13.511Z,8.18
2023-02-03T06:58:17.705Z,8.16
2023-02-03T07:03:21.834Z,8.17
2023-02-03T07:08:26.023Z,8.15
2023-02-03T07:13:30.144Z,8.07
2023-02-03T07:18:47.773Z,8.00
2023-02-03T07:23:38.449Z,7.98
2023-02-03T07:28:42.644Z,7.98
2023-02-03T07:33:46.807Z,7.97
2023-02-03T07:38:50.946Z,8.01
2023-02-03T07:43:55.141Z,8.07
2023-02-03T07:48:59.273Z,8.08
2023-02-03T07:54:03.424Z,8.13
2023-02-03T07:59:07.589Z,8.14
2023-02-03T08:04:11.745Z,8.19
2023-02-03T08:09:15.941Z,8.21
2023-02-03T08:14:20.114Z,8.21
2023-02-03T08:19:24.249Z,8.28
2023-02-03T08:24:28.438Z,8.30
2023-02-03T08:29:32.599Z,8.25
2023-02-03T08:34:36.710Z,8.23
2023-02-03T08:39:39.001Z,8.21
2023-02-03T08:44:43.192Z,8.20
2023-02-03T08:49:45.450Z,8.19
2023-02-03T08:54:49.585Z,8.20
2023-02-03T08:59:53.792Z,8.18
2023-02-03T09:04:56.084Z,8.17
2023-02-03T09:10:00.252Z,8.18
2023-02-03T09:15:04.343Z,8.18
2023-02-03T09:20:08.605Z,8.18
2023-02-03T09:25:12.700Z,8.18
2023-02-03T09:30:16.843Z,8.20
2023-02-03T09:35:20.994Z,8.22
2023-02-03T09:40:25.713Z,8.22
2023-02-03T09:45:29.361Z,8.22
2023-02-03T09:50:33.501Z,8.21
2023-02-03T09:55:37.668Z,8.23
2023-02-03T10:00:41.834Z,8.23
2023-02-03T10:05:46.008Z,8.24
2023-02-03T10:10:50.112Z,8.28
2023-02-03T10:15:54.287Z,8.29
2023-02-03T10:20:58.464Z,8.29
2023-02-03T10:26:02.654Z,8.28
2023-02-03T10:31:06.913Z,8.26
2023-02-03T10:36:10.945Z,8.29
2023-02-03T10:41:15.259Z,8.30
2023-02-03T10:46:19.385Z,8.31
2023-02-03T10:51:21.581Z,8.32
2023-02-03T10:56:25.710Z,8.33
2023-02-03T11:01:28.056Z,8.33
2023-02-03T11:06:32.159Z,8.34
2023-02-03T11:11:36.357Z,8.34
2023-02-03T11:16:43.358Z,8.36
2023-02-03T11:21:44.643Z,8.37
2023-02-03T11:26:48.866Z,8.39
2023-02-03T11:31:53.125Z,8.43
2023-02-03T11:36:57.126Z,8.54
2023-02-03T11:42:01.417Z,8.63
2023-02-03T11:47:05.431Z,8.71
2023-02-03T11:52:09.594Z,8.76
2023-02-03T11:57:13.767Z,8.82
2023-02-03T12:02:17.923Z,8.87
2023-02-03T12:07:22.073Z,8.90
2023-02-03T12:12:26.265Z,8.90
2023-02-03T12:17:30.414Z,8.91
2023-02-03T12:22:34.572Z,8.91
2023-02-03T12:27:38.775Z,9.00
2023-02-03T12:32:42.907Z,9.03
2023-02-03T12:37:47.058Z,9.02
2023-02-03T12:42:51.247Z,8.96
2023-02-03T12:47:53.497Z,8.92
2023-02-03T12:52:57.673Z,8.95
2023-02-03T12:57:59.913Z,8.99
2023-02-03T13:03:04.069Z,9.01
2023-02-03T13:08:08.267Z,9.10
2023-02-03T13:13:12.417Z,9.11
2023-02-03T13:18:16.646Z,9.17
2023-02-03T13:23:20.750Z,9.25
2023-02-03T13:28:24.894Z,9.29
2023-02-03T13:33:29.035Z,9.35
2023-02-03T13:38:33.253Z,9.33
2023-02-03T13:43:39.163Z,9.34
2023-02-03T13:48:41.556Z,9.33
2023-02-03T13:53:45.733Z,9.35
2023-02-03T13:58:51.397Z,9.31
2023-02-03T14:03:54.186Z,9.31
2023-02-03T14:08:58.204Z,9.24
2023-02-03T14:14:02.330Z,9.03
2023-02-03T14:19:06.481Z,8.67
2023-02-03T14:24:10.657Z,8.35
2023-02-03T14:29:14.802Z,8.16
2023-02-03T14:34:19.003Z,8.00
2023-02-03T14:39:23.131Z,7.93
2023-02-03T14:44:25.411Z,7.87
2023-02-03T14:49:29.615Z,7.88
2023-02-03T14:54:31.883Z,7.87
2023-02-03T14:59:36.190Z,7.87
2023-02-03T15:04:40.281Z,7.86
2023-02-03T15:09:44.335Z,7.86
2023-02-03T15:14:48.486Z,7.85
2023-02-03T15:19:52.702Z,7.84
2023-02-03T15:24:56.835Z,7.82
2023-02-03T15:30:00.993Z,7.82
2023-02-03T15:35:05.151Z,7.82
2023-02-03T15:40:09.316Z,7.80
2023-02-03T15:45:13.491Z,7.82
2023-02-03T15:50:17.627Z,7.81
2023-02-03T15:55:21.818Z,7.78
2023-02-03T16:00:25.945Z,7.76
2023-02-03T16:05:30.440Z,7.74
2023-02-03T16:10:34.339Z,7.71
2023-02-03T16:15:38.433Z,7.70
2023-02-03T16:20:42.642Z,7.68
2023-02-03T16:25:46.794Z,7.68
2023-02-03T16:30:51.019Z,7.64
2023-02-03T16:35:56.161Z,7.64
2023-02-03T16:40:57.349Z,7.63
2023-02-03T16:46:01.649Z,7.63
2023-02-03T16:51:03.792Z,7.64
2023-02-03T16:56:08.008Z,7.63
2023-02-03T17:01:12.230Z,7.63
2023-02-03T17:06:16.276Z,7.62
2023-02-03T17:11:20.476Z,7.62
2023-02-03T17:16:24.733Z,7.57
2023-02-03T17:21:28.815Z,7.58
2023-02-03T17:26:32.965Z,7.59
2023-02-03T17:31:37.142Z,7.59
2023-02-03T17:36:41.273Z,7.60
2023-02-03T17:56:57.951Z,7.58
2023-02-03T18:02:02.344Z,7.58
2023-02-03T18:07:06.180Z,7.58
2023-02-03T18:12:10.375Z,7.55
2023-02-03T18:17:14.568Z,7.54
2023-02-03T18:22:18.678Z,7.56
2023-02-03T18:27:22.879Z,7.54
2023-02-03T18:32:26.991Z,7.54
2023-02-03T18:37:29.299Z,7.53
2023-02-03T18:42:33.464Z,7.53
2023-02-03T18:47:35.766Z,7.53
2023-02-03T18:52:39.921Z,7.52
2023-02-03T18:57:44.069Z,7.40
2023-02-03T19:02:48.243Z,7.32
2023-02-03T19:07:52.396Z,7.24
2023-02-03T19:12:56.626Z,7.20
2023-02-03T19:18:00.734Z,7.15
2023-02-03T19:23:04.921Z,7.14
2023-02-03T19:28:14.289Z,7.12
2023-02-03T19:33:13.210Z,7.12
2023-02-03T19:38:17.357Z,7.12
2023-02-03T19:43:21.516Z,7.13
2023-02-03T19:48:25.729Z,7.16
2023-02-03T19:53:29.842Z,7.10
2023-02-03T19:58:34.028Z,7.11
2023-02-03T20:03:38.213Z,7.11
2023-02-03T20:08:42.346Z,7.05
2023-02-03T20:13:46.582Z,7.03
2023-02-03T20:18:50.703Z,7.03
2023-02-03T20:23:54.820Z,7.00
2023-02-03T20:28:59.012Z,6.94
2023-02-03T20:34:01.274Z,6.93
2023-02-03T20:39:05.433Z,6.93
2023-02-03T20:44:07.740Z,6.90
2023-02-03T20:49:11.888Z,6.90
2023-02-03T20:54:16.047Z,6.91
2023-02-03T20:59:20.190Z,6.91
2023-02-03T21:04:24.396Z,6.87
2023-02-03T21:09:28.559Z,6.83
2023-02-03T21:14:32.700Z,6.84
2023-02-03T21:19:36.870Z,6.87
2023-02-03T21:24:41.015Z,6.88
2023-02-03T21:29:45.166Z,6.86
2023-02-03T21:34:49.363Z,6.87
2023-02-03T21:39:53.512Z,6.87
2023-02-03T21:44:57.658Z,6.88
2023-02-03T21:50:01.827Z,6.82
2023-02-03T21:55:06.006Z,6.83
2023-02-03T22:00:10.139Z,6.78
2023-02-03T22:05:14.319Z,6.78
2023-02-03T22:10:18.473Z,6.83
2023-02-03T22:15:22.679Z,6.81
2023-02-03T22:20:26.844Z,6.79
2023-02-03T22:25:31.124Z,6.79
2023-02-03T22:30:33.729Z,6.77
2023-02-03T22:35:37.428Z,6.75
2023-02-03T22:40:39.658Z,6.70
2023-02-03T22:45:43.884Z,6.71
2023-02-03T22:50:47.999Z,6.71
2023-02-03T22:55:52.176Z,6.67
2023-02-03T23:00:56.311Z,6.67
2023-02-03T23:06:00.484Z,6.64
2023-02-03T23:11:04.695Z,6.61
2023-02-03T23:16:08.861Z,6.58
2023-02-03T23:21:13.064Z,6.52
2023-02-03T23:26:17.225Z,6.48
2023-02-03T23:36:23.716Z,6.34
2023-02-03T23:41:27.750Z,6.26
2023-02-03T23:46:33.967Z,6.17
2023-02-03T23:51:36.070Z,6.12
2023-02-03T23:56:40.191Z,6.09
